Time;durP1;ratioP1;P1;durP2;ratioP2;P2;SDS_P1;SDS_P2;PMS_P1;PMS_P2;Temp;Humidity;BMP_temperature;BMP_pressure;BME280_temperature;BME280_humidity;BME280_pressure;Samples;Min_cycle;Max_cycle;Signal;HPM_P1;HPM_P2
2023/12/09 00:01:10;;;;;;;94.68;36.92;;;6.80;99.90;;;;;;5044305;28;20500;-84
2023/12/09 00:03:36;;;;;;;95.15;35.67;;;6.80;99.90;;;;;;5044214;28;20377;-83
2023/12/09 00:06:02;;;;;;;95.50;39.70;;;6.80;99.90;;;;;;5077146;28;20039;-80
2023/12/09 00:08:27;;;;;;;89.82;32.22;;;6.80;99.90;;;;;;5044216;28;20432;-81
2023/12/09 00:10:53;;;;;;;99.88;49.22;;;6.80;99.90;;;;;;5060592;28;20126;-83
2023/12/09 00:13:19;;;;;;;91.50;38.25;;;6.80;99.90;;;;;;5060542;28;20071;-84
2023/12/09 00:15:44;;;;;;;97.15;36.95;;;6.90;99.90;;;;;;5077175;28;20126;-82
2023/12/09 00:18:10;;;;;;;83.82;34.15;;;6.90;99.90;;;;;;5077330;28;20032;-82
2023/12/09 00:20:36;;;;;;;81.07;34.58;;;6.90;99.90;;;;;;5060448;28;20369;-82
2023/12/09 00:23:02;;;;;;;78.53;34.03;;;7.00;99.90;;;;;;5044026;28;20040;-82
2023/12/09 00:25:27;;;;;;;94.70;33.88;;;6.90;99.90;;;;;;5077141;28;20082;-83
2023/12/09 00:27:53;;;;;;;77.03;33.80;;;7.00;99.90;;;;;;5076820;28;20083;-83
2023/12/09 00:30:19;;;;;;;89.63;35.65;;;6.90;99.90;;;;;;5060089;28;20089;-84
2023/12/09 00:32:44;;;;;;;79.60;35.53;;;6.90;99.90;;;;;;5077176;28;20040;-82
2023/12/09 00:35:10;;;;;;;87.43;30.42;;;6.90;99.90;;;;;;5093496;28;20424;-83
2023/12/09 00:37:36;;;;;;;76.45;31.38;;;6.90;99.90;;;;;;5076977;28;20047;-83
2023/12/09 00:40:03;;;;;;;83.80;30.67;;;7.00;99.90;;;;;;5059324;28;20036;-83
2023/12/09 00:42:28;;;;;;;81.78;29.88;;;7.00;99.90;;;;;;5093917;28;20051;-82
2023/12/09 00:44:54;;;;;;;91.57;33.05;;;7.00;99.90;;;;;;5076757;28;20044;-83
2023/12/09 00:47:20;;;;;;;82.55;32.17;;;7.00;99.90;;;;;;5043410;28;20051;-82
2023/12/09 00:49:45;;;;;;;90.38;32.72;;;7.00;99.90;;;;;;5060105;28;20123;-84
2023/12/09 00:52:11;;;;;;;85.30;32.45;;;7.00;99.90;;;;;;5060014;28;20047;-83
2023/12/09 00:54:37;;;;;;;82.20;30.02;;;7.00;99.90;;;;;;5043217;28;20040;-83
2023/12/09 00:57:03;;;;;;;81.07;31.02;;;7.00;99.90;;;;;;5060155;28;20408;-83
2023/12/09 00:59:29;;;;;;;76.53;29.27;;;7.00;99.90;;;;;;5110670;28;20395;-82
2023/12/09 01:01:54;;;;;;;78.47;30.25;;;7.00;99.90;;;;;;5093383;28;20032;-82
2023/12/09 01:04:21;;;;;;;79.05;29.10;;;6.90;99.90;;;;;;5076518;28;20040;-84
2023/12/09 01:06:46;;;;;;;79.18;29.45;;;6.80;99.90;;;;;;5093612;28;20391;-82
2023/12/09 01:09:13;;;;;;;96.13;31.27;;;6.70;99.90;;;;;;5059798;28;20032;-83
2023/12/09 01:11:39;;;;;;;75.63;27.60;;;6.70;99.90;;;;;;5076451;28;20443;-82
2023/12/09 01:14:05;;;;;;;83.90;28.27;;;6.60;99.80;;;;;;5093151;28;20043;-82
2023/12/09 01:16:31;;;;;;;76.30;28.48;;;6.50;99.80;;;;;;5076779;28;20039;-82
2023/12/09 01:18:56;;;;;;;81.85;29.95;;;6.40;99.80;;;;;;5076138;28;20503;-84
2023/12/09 01:21:22;;;;;;;78.78;26.67;;;6.30;99.80;;;;;;5093147;28;20119;-82
2023/12/09 01:23:48;;;;;;;75.13;28.20;;;6.30;99.70;;;;;;5076680;28;20104;-85
2023/12/09 01:26:13;;;;;;;80.45;28.30;;;6.30;99.90;;;;;;5093583;28;20040;-83
2023/12/09 01:28:39;;;;;;;84.38;30.00;;;6.20;99.90;;;;;;5094107;28;20040;-82
2023/12/09 01:31:05;;;;;;;70.18;26.52;;;6.20;99.90;;;;;;5093807;28;20404;-81
2023/12/09 01:33:32;;;;;;;83.38;27.80;;;6.10;99.90;;;;;;5076687;28;20056;-82
2023/12/09 01:35:58;;;;;;;73.22;28.55;;;6.10;99.90;;;;;;5093760;28;20111;-84
2023/12/09 01:38:23;;;;;;;67.03;25.30;;;6.10;99.90;;;;;;5093904;28;20032;-83
2023/12/09 01:40:55;;;;;;;68.13;25.90;;;6.10;99.90;;;;;;5077300;28;20505;-82
2023/12/09 01:43:23;;;;;;;68.55;25.77;;;6.10;99.90;;;;;;5093885;28;20047;-83
2023/12/09 01:45:53;;;;;;;68.15;25.85;;;6.10;99.90;;;;;;5060335;28;20036;-82
2023/12/09 01:48:20;;;;;;;73.93;25.23;;;6.00;99.90;;;;;;5110759;28;20054;-82
2023/12/09 01:50:46;;;;;;;73.25;23.83;;;6.00;99.90;;;;;;5093509;28;20089;-82
2023/12/09 01:53:12;;;;;;;60.17;23.95;;;6.00;99.90;;;;;;5076437;28;20047;-83
2023/12/09 01:55:40;;;;;;;63.50;23.08;;;6.10;99.90;;;;;;5076699;28;20047;-84
2023/12/09 01:58:06;;;;;;;69.80;23.42;;;6.10;99.90;;;;;;5127827;27;20392;-83
2023/12/09 02:00:32;;;;;;;66.28;23.25;;;6.20;99.90;;;;;;5093556;28;20040;-84
2023/12/09 02:02:58;;;;;;;67.45;23.92;;;6.30;99.90;;;;;;5076435;28;20088;-82
2023/12/09 02:05:25;;;;;;;65.20;23.00;;;6.30;99.90;;;;;;5076363;28;20407;-84
2023/12/09 02:07:51;;;;;;;64.75;21.48;;;6.40;99.90;;;;;;5076410;28;20549;-83
2023/12/09 02:10:17;;;;;;;61.15;22.00;;;6.40;99.90;;;;;;5075529;28;20043;-83
2023/12/09 02:13:16;;;;;;;55.72;20.85;;;6.40;99.90;;;;;;5059757;28;20044;-83
2023/12/09 02:15:57;;;;;;;63.55;22.27;;;6.50;99.90;;;;;;5109601;28;20075;-83
2023/12/09 02:18:25;;;;;;;53.83;19.77;;;6.50;99.90;;;;;;5109553;28;20079;-82
2023/12/09 02:20:51;;;;;;;58.72;21.60;;;6.60;99.90;;;;;;5075883;28;20392;-82
2023/12/09 02:23:16;;;;;;;58.78;19.92;;;6.60;99.90;;;;;;5076033;28;20036;-83
2023/12/09 02:25:42;;;;;;;50.95;20.35;;;6.70;99.90;;;;;;5092376;28;20047;-81
2023/12/09 02:28:14;;;;;;;66.03;22.33;;;6.70;99.90;;;;;;5076268;28;20043;-84
2023/12/09 02:30:54;;;;;;;65.60;22.35;;;6.70;99.90;;;;;;5091768;28;20048;-83
2023/12/09 02:33:21;;;;;;;65.57;22.52;;;6.80;99.90;;;;;;5075704;28;20174;-81
2023/12/09 02:35:50;;;;;;;48.70;20.13;;;6.70;99.90;;;;;;5058972;28;20141;-82
2023/12/09 02:38:18;;;;;;;55.17;19.08;;;6.80;99.90;;;;;;5092570;28;20125;-82
2023/12/09 02:40:45;;;;;;;54.53;18.95;;;6.70;99.90;;;;;;5126421;28;20036;-81
2023/12/09 02:43:12;;;;;;;57.95;19.48;;;6.80;99.90;;;;;;5092213;28;20042;-82
2023/12/09 02:45:38;;;;;;;51.70;19.40;;;6.70;99.90;;;;;;5109081;28;20036;-82
2023/12/09 02:48:04;;;;;;;46.65;17.58;;;6.70;99.90;;;;;;5058405;28;20457;-83
2023/12/09 02:50:30;;;;;;;42.28;16.90;;;6.70;99.90;;;;;;5075280;28;20036;-83
2023/12/09 02:52:56;;;;;;;63.60;18.38;;;6.70;99.90;;;;;;5075219;28;20063;-82
2023/12/09 02:55:22;;;;;;;46.10;17.58;;;6.70;99.90;;;;;;5091647;28;20488;-83
2023/12/09 02:57:48;;;;;;;56.00;18.92;;;6.70;99.90;;;;;;5108784;28;20043;-83
2023/12/09 03:00:14;;;;;;;53.03;18.33;;;6.70;99.90;;;;;;5091995;28;20036;-84
2023/12/09 03:02:39;;;;;;;46.20;17.60;;;6.70;99.90;;;;;;5110299;28;20040;-82
2023/12/09 03:05:05;;;;;;;52.17;19.95;;;6.70;99.90;;;;;;5095464;28;20085;-82
2023/12/09 03:07:31;;;;;;;51.20;18.38;;;6.60;99.80;;;;;;5129565;27;20044;-81
2023/12/09 03:09:57;;;;;;;48.13;18.73;;;6.70;99.90;;;;;;5129491;27;20043;-84
2023/12/09 03:12:22;;;;;;;55.08;18.73;;;6.60;99.90;;;;;;5094993;28;20046;-82
2023/12/09 03:14:48;;;;;;;55.20;21.30;;;6.70;99.90;;;;;;5095558;28;20043;-84
2023/12/09 03:17:14;;;;;;;59.40;21.55;;;6.70;99.90;;;;;;5078854;28;20036;-83
2023/12/09 03:19:40;;;;;;;62.08;21.42;;;6.70;99.90;;;;;;5078625;28;20452;-83
2023/12/09 03:22:05;;;;;;;55.30;20.10;;;6.80;99.80;;;;;;5061610;28;20518;-82
2023/12/09 03:24:31;;;;;;;52.72;20.55;;;6.80;99.90;;;;;;5061603;28;20165;-82
2023/12/09 03:26:57;;;;;;;58.33;20.98;;;6.80;99.80;;;;;;5094890;28;20044;-82
2023/12/09 03:29:22;;;;;;;55.35;20.58;;;6.80;99.80;;;;;;5077823;28;20040;-83
2023/12/09 03:31:48;;;;;;;64.57;21.58;;;6.80;99.80;;;;;;5094763;28;20063;-82
2023/12/09 03:34:15;;;;;;;52.40;20.92;;;6.80;99.80;;;;;;5077551;28;20063;-82
2023/12/09 03:36:41;;;;;;;47.15;20.30;;;6.90;99.80;;;;;;5094662;28;20051;-83
2023/12/09 03:39:07;;;;;;;55.83;20.17;;;6.90;99.80;;;;;;5094465;28;20044;-82
2023/12/09 03:41:35;;;;;;;54.08;20.02;;;6.80;99.70;;;;;;5094460;28;20084;-83
2023/12/09 03:44:02;;;;;;;54.72;21.38;;;6.90;99.80;;;;;;5077531;28;20040;-84
2023/12/09 03:46:28;;;;;;;47.03;19.52;;;6.90;99.80;;;;;;5094414;28;20051;-83
2023/12/09 03:48:54;;;;;;;49.92;19.05;;;6.90;99.70;;;;;;5111295;28;20040;-83
2023/12/09 03:51:20;;;;;;;50.40;19.75;;;6.90;99.60;;;;;;5128700;27;20048;-83
2023/12/09 03:53:45;;;;;;;50.30;19.95;;;6.90;99.60;;;;;;5077740;28;20484;-82
2023/12/09 03:56:11;;;;;;;53.35;20.30;;;6.90;99.60;;;;;;5077405;28;20047;-84
2023/12/09 03:58:37;;;;;;;50.25;20.85;;;6.80;99.60;;;;;;5094236;28;20036;-83
2023/12/09 04:01:04;;;;;;;57.78;22.50;;;6.80;99.50;;;;;;5094240;28;20036;-82
2023/12/09 04:03:30;;;;;;;52.38;20.02;;;6.80;99.60;;;;;;5077069;28;20040;-83
2023/12/09 04:05:55;;;;;;;49.85;21.35;;;6.80;99.50;;;;;;5094273;28;20105;-82
2023/12/09 04:08:21;;;;;;;49.67;22.48;;;6.80;99.50;;;;;;5077321;28;20047;-82
2023/12/09 04:10:47;;;;;;;53.08;22.67;;;6.80;99.50;;;;;;5076894;28;20484;-82
2023/12/09 04:13:13;;;;;;;48.10;21.60;;;6.80;99.50;;;;;;5076628;28;20070;-84
2023/12/09 04:15:39;;;;;;;56.10;21.90;;;6.70;99.40;;;;;;5093109;28;20036;-83
2023/12/09 04:18:05;;;;;;;47.22;23.13;;;6.70;99.50;;;;;;5093884;28;20377;-82
2023/12/09 04:20:31;;;;;;;53.10;21.45;;;6.80;99.50;;;;;;5093619;28;20044;-83
2023/12/09 04:22:57;;;;;;;52.95;21.65;;;6.80;99.50;;;;;;5060219;28;20100;-82
2023/12/09 04:25:24;;;;;;;54.28;22.85;;;6.80;99.50;;;;;;5093816;28;20047;-84
2023/12/09 04:27:54;;;;;;;54.75;22.60;;;6.80;99.50;;;;;;5077048;28;20053;-83
2023/12/09 04:30:21;;;;;;;49.35;20.20;;;6.80;99.40;;;;;;5094502;28;20044;-84
2023/12/09 04:32:48;;;;;;;55.97;22.02;;;6.80;99.50;;;;;;5076699;28;20170;-81
2023/12/09 04:35:14;;;;;;;50.13;23.35;;;6.80;99.50;;;;;;5076339;28;20055;-83
2023/12/09 04:37:41;;;;;;;55.30;21.40;;;6.80;99.40;;;;;;5076672;28;20048;-83
2023/12/09 04:40:13;;;;;;;47.78;23.15;;;6.80;99.40;;;;;;5076346;28;20101;-83
2023/12/09 04:42:39;;;;;;;50.85;23.50;;;6.80;99.40;;;;;;5094630;28;20040;-83
2023/12/09 04:45:06;;;;;;;48.90;22.52;;;6.70;99.40;;;;;;5093595;28;20075;-83
2023/12/09 04:47:33;;;;;;;54.00;21.55;;;6.70;99.40;;;;;;5076223;28;20122;-82
2023/12/09 04:49:59;;;;;;;50.95;22.10;;;6.70;99.40;;;;;;5076464;28;20044;-83
2023/12/09 04:52:24;;;;;;;44.95;20.17;;;6.70;99.40;;;;;;5076186;28;20097;-82
2023/12/09 04:54:50;;;;;;;51.65;22.60;;;6.70;99.40;;;;;;5109952;28;20040;-82
2023/12/09 04:57:17;;;;;;;51.03;22.25;;;6.70;99.40;;;;;;5093355;28;20071;-83
2023/12/09 04:59:43;;;;;;;47.78;20.58;;;6.70;99.30;;;;;;5076168;28;20036;-83
2023/12/09 05:02:09;;;;;;;52.63;20.55;;;6.60;99.30;;;;;;5127060;27;20044;-83
2023/12/09 05:04:35;;;;;;;45.47;21.63;;;6.60;99.30;;;;;;5075982;28;20072;-83
2023/12/09 05:07:01;;;;;;;54.53;21.67;;;6.50;99.30;;;;;;5076166;28;20075;-83
2023/12/09 05:09:26;;;;;;;48.03;21.10;;;6.50;99.30;;;;;;5092897;28;20043;-83
2023/12/09 05:11:52;;;;;;;43.45;21.85;;;6.50;99.30;;;;;;5076286;28;20035;-84
2023/12/09 05:14:18;;;;;;;44.42;21.23;;;6.50;99.30;;;;;;5075771;28;20040;-83
2023/12/09 05:16:43;;;;;;;50.88;21.65;;;6.50;99.40;;;;;;5075835;28;20092;-84
2023/12/09 05:19:09;;;;;;;52.22;21.33;;;6.50;99.30;;;;;;5075630;28;20055;-83
2023/12/09 05:21:35;;;;;;;47.65;20.40;;;6.50;99.30;;;;;;5092631;28;20131;-84
2023/12/09 05:24:02;;;;;;;50.75;20.42;;;6.40;99.30;;;;;;5092557;28;20123;-82
2023/12/09 05:26:29;;;;;;;47.90;20.98;;;6.40;99.30;;;;;;5075793;28;20047;-83
2023/12/09 05:28:55;;;;;;;49.33;20.58;;;6.40;99.30;;;;;;5075785;28;20392;-84
2023/12/09 05:31:24;;;;;;;49.95;20.60;;;6.30;99.30;;;;;;5075494;28;20036;-84
2023/12/09 05:33:50;;;;;;;44.75;18.42;;;6.30;99.30;;;;;;5058904;28;20411;-84
2023/12/09 05:36:16;;;;;;;46.80;18.27;;;6.30;99.30;;;;;;5058678;28;20044;-83
2023/12/09 05:38:43;;;;;;;43.90;18.02;;;6.30;99.30;;;;;;5109102;28;20526;-83
2023/12/09 05:41:09;;;;;;;47.03;20.75;;;6.30;99.30;;;;;;5075342;28;20040;-84
2023/12/09 05:43:39;;;;;;;44.55;18.33;;;6.30;99.30;;;;;;5058751;28;20032;-84
2023/12/09 05:46:05;;;;;;;53.13;19.85;;;6.20;99.30;;;;;;5075517;28;20442;-84
2023/12/09 05:48:34;;;;;;;40.97;20.63;;;6.20;99.30;;;;;;5075191;28;20083;-83
2023/12/09 05:51:01;;;;;;;46.67;19.48;;;6.20;99.30;;;;;;5058796;28;20376;-84
2023/12/09 05:53:26;;;;;;;43.38;17.55;;;6.20;99.30;;;;;;5058847;28;20040;-83
2023/12/09 05:55:52;;;;;;;45.95;18.40;;;6.10;99.30;;;;;;5058400;28;20416;-84
2023/12/09 05:58:18;;;;;;;44.50;19.65;;;6.10;99.30;;;;;;5075380;28;20036;-83
2023/12/09 06:00:44;;;;;;;46.08;19.42;;;6.10;99.30;;;;;;5058358;28;20036;-84
2023/12/09 06:03:10;;;;;;;40.13;19.23;;;6.10;99.30;;;;;;5108937;28;20043;-85
2023/12/09 06:05:39;;;;;;;43.63;19.80;;;6.10;99.30;;;;;;5058381;28;20385;-82
2023/12/09 06:08:04;;;;;;;39.90;19.80;;;6.10;99.30;;;;;;5075436;28;20039;-85
2023/12/09 06:10:30;;;;;;;45.97;20.10;;;6.10;99.30;;;;;;5075024;28;20504;-83
2023/12/09 06:12:56;;;;;;;47.08;18.98;;;6.10;99.30;;;;;;5058421;28;20036;-83
2023/12/09 06:15:21;;;;;;;47.90;19.58;;;6.10;99.30;;;;;;5075278;28;20052;-84
2023/12/09 06:17:47;;;;;;;48.95;19.83;;;6.10;99.30;;;;;;5077820;28;20408;-82
2023/12/09 06:20:13;;;;;;;48.78;19.52;;;6.00;99.20;;;;;;5054841;28;20052;-84
2023/12/09 06:22:39;;;;;;;48.60;19.73;;;6.00;99.20;;;;;;5088449;28;20186;-84
2023/12/09 06:25:04;;;;;;;49.15;20.83;;;6.00;99.30;;;;;;5038698;28;20089;-83
2023/12/09 06:27:30;;;;;;;48.80;20.42;;;5.90;99.20;;;;;;5071661;28;20566;-83
2023/12/09 06:29:56;;;;;;;44.95;19.58;;;5.90;99.20;;;;;;5054787;28;20503;-84
2023/12/09 06:32:21;;;;;;;48.28;19.60;;;5.90;99.30;;;;;;5055006;28;20037;-83
2023/12/09 06:34:47;;;;;;;50.85;21.58;;;5.90;99.30;;;;;;5054510;28;20063;-84
2023/12/09 06:37:13;;;;;;;50.20;20.17;;;5.90;99.40;;;;;;5055611;28;20036;-85
2023/12/09 06:39:38;;;;;;;54.15;20.80;;;5.90;99.40;;;;;;5087700;28;20036;-83
2023/12/09 06:42:05;;;;;;;51.95;20.48;;;5.90;99.40;;;;;;5096711;28;20036;-85
2023/12/09 06:44:31;;;;;;;50.92;20.55;;;5.90;99.40;;;;;;5096034;28;20040;-84
2023/12/09 06:46:57;;;;;;;56.63;21.80;;;5.90;99.40;;;;;;5096022;28;20093;-83
2023/12/09 06:49:22;;;;;;;47.50;19.08;;;6.00;99.40;;;;;;5079022;28;20177;-83
2023/12/09 06:51:49;;;;;;;46.78;19.45;;;6.00;99.50;;;;;;5062636;28;20043;-83
2023/12/09 06:54:15;;;;;;;43.67;18.70;;;6.00;99.50;;;;;;5079184;28;20392;-83
2023/12/09 06:56:41;;;;;;;46.85;20.50;;;6.00;99.40;;;;;;5112776;28;20048;-84
2023/12/09 06:59:07;;;;;;;46.33;21.00;;;6.00;99.50;;;;;;5078774;28;20032;-84
2023/12/09 07:01:33;;;;;;;48.92;19.38;;;6.00;99.50;;;;;;5078465;28;20546;-84
2023/12/09 07:03:59;;;;;;;37.13;17.77;;;6.00;99.50;;;;;;5095553;28;20079;-85
2023/12/09 07:06:26;;;;;;;46.53;20.17;;;6.10;99.50;;;;;;5062749;28;20082;-84
2023/12/09 07:08:53;;;;;;;48.70;21.60;;;6.00;99.50;;;;;;5078909;28;20044;-83
2023/12/09 07:11:22;;;;;;;40.47;19.10;;;6.10;99.50;;;;;;5078929;28;20055;-84
2023/12/09 07:13:48;;;;;;;48.58;20.80;;;6.10;99.50;;;;;;5095747;28;20058;-83
2023/12/09 07:16:14;;;;;;;44.38;19.00;;;6.10;99.50;;;;;;5061818;28;20075;-83
2023/12/09 07:18:47;;;;;;;47.17;18.13;;;6.10;99.50;;;;;;5078494;28;20082;-83
2023/12/09 07:21:16;;;;;;;55.00;20.48;;;6.10;99.50;;;;;;5079681;28;20375;-83
2023/12/09 07:23:42;;;;;;;43.75;18.55;;;6.20;99.60;;;;;;5078679;28;20090;-83
2023/12/09 07:26:08;;;;;;;42.15;19.15;;;6.30;99.60;;;;;;5129544;27;20077;-83
2023/12/09 07:28:34;;;;;;;46.35;19.33;;;6.20;99.50;;;;;;5078117;28;20530;-83
2023/12/09 07:31:01;;;;;;;44.22;19.55;;;6.30;99.50;;;;;;5061649;28;20047;-85
2023/12/09 07:33:27;;;;;;;45.92;18.83;;;6.40;99.50;;;;;;5095112;28;20124;-84
2023/12/09 07:35:53;;;;;;;52.00;19.85;;;6.40;99.50;;;;;;5094885;28;20048;-84
2023/12/09 07:38:19;;;;;;;42.55;18.27;;;6.40;99.40;;;;;;5078575;28;20530;-84
2023/12/09 07:40:44;;;;;;;41.72;20.02;;;6.40;99.40;;;;;;5112097;28;20036;-84
2023/12/09 07:43:10;;;;;;;46.22;21.42;;;6.40;99.40;;;;;;5077954;28;20502;-84
2023/12/09 07:45:36;;;;;;;48.03;19.35;;;6.40;99.40;;;;;;5094430;28;20051;-84
2023/12/09 07:48:03;;;;;;;43.28;17.98;;;6.40;99.40;;;;;;5111501;28;20040;-84
2023/12/09 07:50:32;;;;;;;34.88;18.70;;;6.40;99.40;;;;;;5094712;28;20056;-84
2023/12/09 07:52:59;;;;;;;41.10;17.08;;;6.50;99.30;;;;;;5077866;28;20044;-84
2023/12/09 07:55:25;;;;;;;39.55;17.95;;;6.50;99.30;;;;;;5078336;28;20040;-85
2023/12/09 07:57:50;;;;;;;48.08;18.58;;;6.50;99.30;;;;;;5077782;28;20123;-83
2023/12/09 08:00:17;;;;;;;43.92;18.17;;;6.50;99.30;;;;;;5060995;28;20043;-83
2023/12/09 08:02:43;;;;;;;45.53;17.98;;;6.50;99.30;;;;;;5094602;28;20047;-84
2023/12/09 08:05:09;;;;;;;42.85;19.10;;;6.50;99.20;;;;;;5060990;28;20082;-84
2023/12/09 08:07:35;;;;;;;50.92;16.70;;;6.50;99.20;;;;;;5094718;28;20076;-83
2023/12/09 08:10:01;;;;;;;38.88;16.20;;;6.50;99.20;;;;;;5077724;28;20528;-84
2023/12/09 08:12:27;;;;;;;38.88;15.85;;;6.50;99.20;;;;;;5077556;28;20044;-85
2023/12/09 08:14:52;;;;;;;45.17;16.15;;;6.60;99.10;;;;;;5094228;28;20051;-84
2023/12/09 08:17:18;;;;;;;37.08;17.40;;;6.60;99.10;;;;;;5077410;28;20085;-83
2023/12/09 08:19:44;;;;;;;41.55;16.60;;;6.60;99.00;;;;;;5094110;28;20036;-84
2023/12/09 08:22:09;;;;;;;38.13;15.90;;;6.60;99.00;;;;;;5094698;28;20039;-83
2023/12/09 08:24:35;;;;;;;39.72;14.57;;;6.60;99.00;;;;;;5077040;28;20036;-84
2023/12/09 08:27:01;;;;;;;44.92;15.35;;;6.60;99.00;;;;;;5060784;28;20039;-83
2023/12/09 08:29:26;;;;;;;38.50;14.85;;;6.70;98.90;;;;;;5077269;28;20539;-83
2023/12/09 08:31:52;;;;;;;39.72;14.30;;;6.70;98.90;;;;;;5077064;28;20483;-83
2023/12/09 08:34:18;;;;;;;33.40;12.65;;;6.70;98.90;;;;;;5076891;28;20048;-84
2023/12/09 08:36:44;;;;;;;41.08;14.38;;;6.70;98.80;;;;;;5076851;28;20513;-83
2023/12/09 08:39:10;;;;;;;40.22;13.70;;;6.70;98.70;;;;;;5076777;28;20051;-83
2023/12/09 08:41:37;;;;;;;42.38;13.32;;;6.70;98.80;;;;;;5060398;28;20040;-85
2023/12/09 08:44:03;;;;;;;36.95;14.60;;;6.70;98.80;;;;;;5061010;28;20044;-83
2023/12/09 08:46:32;;;;;;;36.72;13.95;;;6.80;98.80;;;;;;5076890;28;20467;-82
2023/12/09 08:48:58;;;;;;;34.00;13.80;;;6.80;98.70;;;;;;5093865;28;20040;-83
2023/12/09 08:51:24;;;;;;;35.72;14.60;;;6.80;98.80;;;;;;5077068;28;20434;-84
2023/12/09 08:53:50;;;;;;;29.30;12.60;;;6.80;98.70;;;;;;5093514;28;20105;-84
2023/12/09 08:56:15;;;;;;;35.50;12.50;;;6.80;98.70;;;;;;5076344;28;20464;-84
2023/12/09 08:58:41;;;;;;;32.53;10.65;;;6.80;98.70;;;;;;5093391;28;20093;-84
2023/12/09 09:01:08;;;;;;;28.95;12.18;;;6.80;98.50;;;;;;5076345;28;20032;-83
2023/12/09 09:03:34;;;;;;;28.58;11.23;;;6.80;98.60;;;;;;5059883;28;20040;-83
2023/12/09 09:05:59;;;;;;;37.63;10.27;;;6.80;98.60;;;;;;5076695;28;20054;-83
2023/12/09 09:08:25;;;;;;;31.90;11.15;;;6.80;98.50;;;;;;5093691;28;20484;-83
2023/12/09 09:10:51;;;;;;;24.13;9.82;;;6.90;98.30;;;;;;5076387;28;20491;-84
2023/12/09 09:13:16;;;;;;;27.38;10.15;;;6.90;98.20;;;;;;5043395;28;20123;-83
2023/12/09 09:15:42;;;;;;;35.00;11.65;;;6.90;98.30;;;;;;5076176;28;20040;-84
2023/12/09 09:18:08;;;;;;;27.00;10.45;;;6.90;98.10;;;;;;5076598;28;20380;-82
2023/12/09 09:20:34;;;;;;;28.98;10.43;;;6.90;98.10;;;;;;5076198;28;20036;-84
2023/12/09 09:23:00;;;;;;;22.05;10.50;;;6.90;98.20;;;;;;5059732;28;20057;-83
2023/12/09 09:25:25;;;;;;;27.35;10.05;;;6.90;98.00;;;;;;5059392;28;20036;-84
2023/12/09 09:27:52;;;;;;;26.13;9.60;;;6.90;97.90;;;;;;5059450;28;20044;-84
2023/12/09 09:30:22;;;;;;;28.20;9.95;;;7.00;98.00;;;;;;5059750;28;20036;-84
2023/12/09 09:32:48;;;;;;;27.55;10.40;;;6.90;97.90;;;;;;5043908;28;20044;-83
2023/12/09 09:35:14;;;;;;;25.13;10.07;;;7.00;97.90;;;;;;5075646;28;20055;-84
2023/12/09 09:37:39;;;;;;;25.58;9.27;;;6.90;97.70;;;;;;5076123;28;20036;-83
2023/12/09 09:40:06;;;;;;;23.98;9.65;;;6.90;97.60;;;;;;5058659;28;20491;-84
2023/12/09 09:42:46;;;;;;;25.80;9.13;;;7.00;97.70;;;;;;5075608;28;20472;-84
2023/12/09 09:45:25;;;;;;;22.73;9.02;;;6.90;97.50;;;;;;5092745;28;20040;-84
2023/12/09 09:47:53;;;;;;;28.35;9.98;;;7.00;97.70;;;;;;5076020;28;20039;-82
2023/12/09 09:50:23;;;;;;;26.67;10.40;;;7.00;97.50;;;;;;5075853;28;20048;-85
2023/12/09 09:52:50;;;;;;;27.27;9.63;;;7.00;97.50;;;;;;5126857;27;20048;-84
2023/12/09 09:55:18;;;;;;;25.67;11.40;;;7.00;97.20;;;;;;5092665;28;20458;-84
2023/12/09 09:57:44;;;;;;;27.50;9.27;;;7.00;97.40;;;;;;5075780;28;20032;-82
2023/12/09 10:00:14;;;;;;;27.13;8.63;;;7.00;97.30;;;;;;5059111;28;20040;-83
2023/12/09 10:02:53;;;;;;;22.52;8.68;;;7.00;97.20;;;;;;5109396;28;20046;-84
2023/12/09 10:05:22;;;;;;;34.60;9.45;;;7.00;97.30;;;;;;5092532;28;20048;-82
2023/12/09 10:07:48;;;;;;;23.20;7.60;;;7.00;97.30;;;;;;5075941;28;20040;-84
2023/12/09 10:10:16;;;;;;;24.95;8.85;;;7.10;97.20;;;;;;5058791;28;20063;-85
2023/12/09 10:12:42;;;;;;;34.05;12.02;;;7.10;97.00;;;;;;5058390;28;20146;-83
2023/12/09 10:15:09;;;;;;;27.10;9.50;;;7.10;97.10;;;;;;5075650;28;20036;-84
2023/12/09 10:17:35;;;;;;;24.38;12.20;;;7.10;97.00;;;;;;5092458;28;20389;-84
2023/12/09 10:20:02;;;;;;;22.42;8.80;;;7.10;97.10;;;;;;5092179;28;20036;-85
2023/12/09 10:22:28;;;;;;;24.90;11.23;;;7.10;97.10;;;;;;5075750;28;20040;-82
2023/12/09 10:24:54;;;;;;;52.05;30.08;;;7.20;97.00;;;;;;5075627;28;20039;-81
2023/12/09 10:27:24;;;;;;;23.67;9.35;;;7.20;97.00;;;;;;5058678;28;20040;-83
2023/12/09 10:29:56;;;;;;;25.60;10.40;;;7.20;96.90;;;;;;5075268;28;20105;-84
2023/12/09 10:32:22;;;;;;;22.77;8.48;;;7.30;97.10;;;;;;5058970;28;20152;-84
2023/12/09 10:34:49;;;;;;;30.75;14.13;;;7.30;97.00;;;;;;5058384;28;20056;-84
2023/12/09 10:37:19;;;;;;;30.83;16.65;;;7.30;96.80;;;;;;5075587;28;20388;-84
2023/12/09 10:39:50;;;;;;;32.65;19.33;;;7.30;96.90;;;;;;5092227;28;20040;-86
2023/12/09 10:42:15;;;;;;;34.15;17.33;;;7.30;96.90;;;;;;5075265;28;20549;-86
2023/12/09 10:44:42;;;;;;;30.48;14.90;;;7.40;96.80;;;;;;5041818;28;20044;-84
2023/12/09 10:47:08;;;;;;;39.72;28.23;;;7.40;96.90;;;;;;5075276;28;20046;-84
2023/12/09 10:49:34;;;;;;;37.42;21.27;;;7.50;97.00;;;;;;5074974;28;20032;-83
2023/12/09 10:52:00;;;;;;;31.83;14.55;;;7.50;96.90;;;;;;5075274;28;20071;-84
2023/12/09 10:54:26;;;;;;;33.67;20.35;;;7.50;96.80;;;;;;5092204;28;20440;-83
2023/12/09 10:56:51;;;;;;;25.45;9.35;;;7.50;96.70;;;;;;5075622;28;20078;-84
2023/12/09 10:59:18;;;;;;;35.30;21.65;;;7.50;96.90;;;;;;5092098;28;20445;-84
2023/12/09 11:01:47;;;;;;;27.77;15.90;;;7.50;96.70;;;;;;5075296;28;20131;-85
2023/12/09 11:04:14;;;;;;;36.75;19.65;;;7.40;96.80;;;;;;5042113;28;20395;-82
2023/12/09 11:06:41;;;;;;;23.13;10.07;;;7.50;96.90;;;;;;5075022;28;20117;-84
2023/12/09 11:09:08;;;;;;;24.20;11.50;;;7.40;96.80;;;;;;5058085;28;20040;-83
2023/12/09 11:11:35;;;;;;;36.55;12.18;;;7.40;96.60;;;;;;5058205;28;20046;-81
2023/12/09 11:14:01;;;;;;;29.25;9.38;;;7.40;96.70;;;;;;5091739;28;20044;-83
2023/12/09 11:16:30;;;;;;;28.38;8.80;;;7.40;96.70;;;;;;5074711;28;20051;-82
2023/12/09 11:18:57;;;;;;;22.83;11.32;;;7.40;96.60;;;;;;5074678;28;20043;-82
2023/12/09 11:21:31;;;;;;;23.90;10.00;;;7.30;96.50;;;;;;5075102;28;20515;-82
2023/12/09 11:23:58;;;;;;;30.75;13.60;;;7.30;96.60;;;;;;5077809;28;20046;-81
2023/12/09 11:26:29;;;;;;;27.45;14.98;;;7.30;96.80;;;;;;5078312;28;20126;-83
2023/12/09 11:29:06;;;;;;;22.42;9.43;;;7.30;96.70;;;;;;5078457;28;20392;-82
2023/12/09 11:31:39;;;;;;;30.40;12.55;;;7.30;96.70;;;;;;5045115;28;20480;-84
2023/12/09 11:34:10;;;;;;;27.38;12.98;;;7.30;96.70;;;;;;5078163;28;20052;-82
2023/12/09 11:36:38;;;;;;;35.97;15.27;;;7.30;96.80;;;;;;5078298;28;20515;-83
2023/12/09 11:39:11;;;;;;;29.83;12.20;;;7.30;96.60;;;;;;5078143;28;20051;-82
2023/12/09 11:41:38;;;;;;;21.50;8.23;;;7.30;96.60;;;;;;5112106;27;20040;-85
2023/12/09 11:44:04;;;;;;;26.30;8.25;;;7.30;96.70;;;;;;5069325;28;20047;-84
2023/12/09 11:46:31;;;;;;;18.88;6.68;;;7.30;96.60;;;;;;5052947;28;20044;-86
2023/12/09 11:48:58;;;;;;;26.48;9.05;;;7.30;96.80;;;;;;5068623;28;20044;-86
2023/12/09 11:51:24;;;;;;;24.08;10.05;;;7.40;96.50;;;;;;5095094;28;20044;-84
2023/12/09 11:54:01;;;;;;;22.20;7.75;;;7.30;96.70;;;;;;5078105;28;20044;-84
2023/12/09 11:56:27;;;;;;;19.27;6.45;;;7.40;96.50;;;;;;5077819;28;20480;-83
2023/12/09 11:58:54;;;;;;;18.13;6.45;;;7.40;96.60;;;;;;5061011;28;20236;-84
2023/12/09 12:01:20;;;;;;;17.00;5.32;;;7.40;96.70;;;;;;5076507;28;20040;-82
2023/12/09 12:03:49;;;;;;;14.90;4.95;;;7.40;96.60;;;;;;5060333;28;20040;-86
2023/12/09 12:06:16;;;;;;;18.60;5.75;;;7.40;96.60;;;;;;5077135;28;20094;-81
2023/12/09 12:08:43;;;;;;;14.43;5.68;;;7.40;96.20;;;;;;5093897;28;20135;-83
2023/12/09 12:11:10;;;;;;;17.10;6.55;;;7.40;96.40;;;;;;5077123;28;20044;-84
2023/12/09 12:13:36;;;;;;;13.75;5.18;;;7.50;96.20;;;;;;5060430;28;20079;-84
2023/12/09 12:16:02;;;;;;;14.73;4.40;;;7.40;96.10;;;;;;5043822;28;20052;-82
2023/12/09 12:18:29;;;;;;;14.32;6.03;;;7.40;96.10;;;;;;5076904;28;20040;-82
2023/12/09 12:20:55;;;;;;;13.98;4.88;;;7.50;96.20;;;;;;5060471;28;20484;-83
2023/12/09 12:23:21;;;;;;;15.27;4.93;;;7.40;96.20;;;;;;5076952;28;20036;-84
2023/12/09 12:25:53;;;;;;;14.20;5.22;;;7.40;96.00;;;;;;5060204;28;20044;-82
2023/12/09 12:28:19;;;;;;;20.10;5.85;;;7.40;96.10;;;;;;5060383;28;20518;-81
2023/12/09 12:30:45;;;;;;;12.77;4.30;;;7.40;96.10;;;;;;5060408;28;20423;-83
2023/12/09 12:33:11;;;;;;;16.88;5.00;;;7.40;96.20;;;;;;5059689;28;20093;-83
2023/12/09 12:35:36;;;;;;;18.60;5.45;;;7.40;95.80;;;;;;5058796;28;20060;-83